createdAt,value
2018-04-02T00:01:12.853Z,95149
2018-04-02T00:03:40.977Z,95159
2018-04-02T00:06:09.138Z,95147
2018-04-02T00:08:37.201Z,95144
2018-04-02T00:11:05.259Z,95160
2018-04-02T00:13:33.367Z,95152
2018-04-02T00:16:01.416Z,95138
2018-04-02T00:18:29.489Z,95144
2018-04-02T00:20:57.542Z,95147
2018-04-02T00:23:26.394Z,95153
2018-04-02T00:25:54.445Z,95156
2018-04-02T00:28:22.512Z,95154
2018-04-02T00:30:50.564Z,95143
2018-04-02T00:33:19.416Z,95154
2018-04-02T00:35:47.470Z,95152
2018-04-02T00:38:15.535Z,95151
2018-04-02T00:40:43.641Z,95148
2018-04-02T00:43:11.705Z,95150
2018-04-02T00:45:39.757Z,95160
2018-04-02T00:48:07.822Z,95151
2018-04-02T00:50:36.634Z,95141
2018-04-02T00:53:04.695Z,95150
2018-04-02T00:55:33.543Z,95148
2018-04-02T00:58:01.619Z,95139
2018-04-02T01:00:29.682Z,95148
2018-04-02T01:02:57.742Z,95146
2018-04-02T01:05:25.789Z,95144
2018-04-02T01:07:53.863Z,95145
2018-04-02T01:10:22.686Z,95145
2018-04-02T01:12:50.738Z,95152
2018-04-02T01:15:19.902Z,95138
2018-04-02T01:17:48.061Z,95153
2018-04-02T01:20:16.110Z,95143
2018-04-02T01:22:44.162Z,95148
2018-04-02T01:25:12.977Z,95138
2018-04-02T01:27:41.027Z,95142
2018-04-02T01:30:09.846Z,95143
2018-04-02T01:32:37.898Z,95135
2018-04-02T01:35:06.727Z,95130
2018-04-02T01:37:34.824Z,95130
2018-04-02T01:40:02.897Z,95129
2018-04-02T01:42:30.985Z,95134
2018-04-02T01:44:59.044Z,95114
2018-04-02T01:47:27.091Z,95121
2018-04-02T01:49:55.146Z,95121
2018-04-02T01:52:23.990Z,95120
2018-04-02T01:54:52.165Z,95123
2018-04-02T01:57:20.978Z,95114
2018-04-02T01:59:49.030Z,95110
2018-04-02T02:02:17.090Z,95110
2018-04-02T02:04:45.198Z,95114
2018-04-02T02:07:13.242Z,95108
2018-04-02T02:09:41.293Z,95108
2018-04-02T02:12:10.139Z,95111
2018-04-02T02:14:38.193Z,95121
2018-04-02T02:17:06.300Z,95116
2018-04-02T02:19:34.358Z,95106
2018-04-02T02:22:02.403Z,95107
2018-04-02T02:24:30.522Z,95110
2018-04-02T02:26:58.569Z,95107
2018-04-02T02:29:26.629Z,95106
2018-04-02T02:31:54.678Z,95111
2018-04-02T02:34:22.741Z,95102
2018-04-02T02:36:51.522Z,95097
2018-04-02T02:39:19.598Z,95098
2018-04-02T02:41:47.684Z,95100
2018-04-02T02:44:15.751Z,95115
2018-04-02T02:46:43.805Z,95109
2018-04-02T02:49:11.865Z,95120
2018-04-02T02:51:39.902Z,95118
2018-04-02T02:54:07.976Z,95119
2018-04-02T02:56:37.564Z,95109
2018-04-02T02:59:05.621Z,95113
2018-04-02T03:01:33.675Z,95108
2018-04-02T03:04:01.727Z,95119
2018-04-02T03:06:30.603Z,95132
2018-04-02T03:08:58.598Z,95133
2018-04-02T03:11:27.420Z,95117
2018-04-02T03:13:55.474Z,95117
2018-04-02T03:16:24.299Z,95109
2018-04-02T03:18:53.322Z,95111
2018-04-02T03:21:22.874Z,95119
2018-04-02T03:23:52.833Z,95108
2018-04-02T03:26:20.887Z,95118
2018-04-02T03:28:49.001Z,95100
2018-04-02T03:31:17.062Z,95097
2018-04-02T03:33:45.127Z,95100
2018-04-02T03:36:13.235Z,95101
2018-04-02T03:38:41.307Z,95100
2018-04-02T03:41:09.362Z,95093
2018-04-02T03:43:37.430Z,95104
2018-04-02T03:46:05.538Z,95105
2018-04-02T03:48:33.617Z,95102
2018-04-02T03:51:01.690Z,95089
2018-04-02T03:53:29.794Z,95099
2018-04-02T03:55:57.951Z,95092
2018-04-02T03:58:26.028Z,95097
2018-04-02T04:00:54.078Z,95098
2018-04-02T04:03:23.362Z,95092
2018-04-02T04:05:52.501Z,95096
2018-04-02T04:08:20.546Z,95104
2018-04-02T04:10:48.653Z,95100
2018-04-02T04:13:16.741Z,95110
2018-04-02T04:15:44.814Z,95103
2018-04-02T04:18:12.871Z,95095
2018-04-02T04:20:40.962Z,95100
2018-04-02T04:23:09.002Z,95103
2018-04-02T04:25:37.065Z,95098
2018-04-02T04:28:05.117Z,95102
2018-04-02T04:30:33.183Z,95096
2018-04-02T04:33:01.236Z,95117
2018-04-02T04:35:29.322Z,95106
2018-04-02T04:37:57.377Z,95099
2018-04-02T04:40:25.527Z,95103
2018-04-02T04:42:54.083Z,95105
2018-04-02T04:45:23.937Z,95113
2018-04-02T04:47:52.360Z,95099
2018-04-02T04:50:20.419Z,95099
2018-04-02T04:52:48.470Z,95101
2018-04-02T04:55:16.554Z,95093
2018-04-02T04:57:44.606Z,95100
2018-04-02T05:00:13.433Z,95098
2018-04-02T05:02:41.571Z,95093
2018-04-02T05:05:10.455Z,95106
2018-04-02T05:07:38.571Z,95099
2018-04-02T05:10:06.723Z,95108
2018-04-02T05:12:35.542Z,95089
2018-04-02T05:15:03.623Z,95091
2018-04-02T05:17:31.686Z,95090
2018-04-02T05:19:59.742Z,95090
2018-04-02T05:22:28.560Z,95101
2018-04-02T05:24:56.618Z,95088
2018-04-02T05:27:25.438Z,95085
2018-04-02T05:29:54.484Z,95078
2018-04-02T05:32:24.282Z,95067
2018-04-02T05:34:53.466Z,95084
2018-04-02T05:37:21.555Z,95078
2018-04-02T05:39:49.613Z,95078
2018-04-02T05:42:17.681Z,95072
2018-04-02T05:44:45.731Z,95095
2018-04-02T05:47:14.574Z,95092
2018-04-02T05:49:42.633Z,95090
2018-04-02T05:52:10.697Z,95083
2018-04-02T05:54:38.769Z,95085
2018-04-02T05:57:06.821Z,95086
2018-04-02T05:59:35.648Z,95087
2018-04-02T06:02:03.694Z,95083
2018-04-02T06:04:32.554Z,95088
2018-04-02T06:07:00.610Z,95086
2018-04-02T06:09:28.693Z,95079
2018-04-02T06:11:56.743Z,95085
2018-04-02T06:14:24.790Z,95086
2018-04-02T06:16:53.774Z,95093
2018-04-02T06:19:21.842Z,95082
2018-04-02T06:21:49.904Z,95083
2018-04-02T06:24:17.954Z,95087
2018-04-02T06:26:46.405Z,95083
2018-04-02T06:29:14.689Z,95091
2018-04-02T06:31:43.134Z,95085
2018-04-02T06:34:11.988Z,95082
2018-04-02T06:36:40.068Z,95076
2018-04-02T06:39:08.139Z,95073
2018-04-02T06:41:36.225Z,95085
2018-04-02T06:44:04.292Z,95083
2018-04-02T06:46:32.465Z,95082
2018-04-02T06:49:01.009Z,95074
2018-04-02T06:51:29.072Z,95074
2018-04-02T06:53:57.139Z,95069
2018-04-02T06:56:25.203Z,95066
2018-04-02T06:58:54.477Z,95075
2018-04-02T07:01:24.403Z,95068
2018-04-02T07:03:52.461Z,95068
2018-04-02T07:06:21.318Z,95060
2018-04-02T07:08:49.402Z,95064
2018-04-02T07:11:17.466Z,95060
2018-04-02T07:13:45.510Z,95060
2018-04-02T07:16:13.583Z,95056
2018-04-02T07:18:41.702Z,95067
2018-04-02T07:21:10.556Z,95063
2018-04-02T07:23:38.609Z,95064
2018-04-02T07:26:07.426Z,95059
2018-04-02T07:28:35.647Z,95055
2018-04-02T07:31:04.804Z,95065
2018-04-02T07:33:32.890Z,95064
2018-04-02T07:36:00.946Z,95054
2018-04-02T07:38:29.758Z,95051
2018-04-02T07:40:57.834Z,95058
2018-04-02T07:43:25.909Z,95056
2018-04-02T07:45:56.048Z,95049
2018-04-02T07:48:24.734Z,95052
2018-04-02T07:50:52.786Z,95049
2018-04-02T07:53:20.941Z,95044
2018-04-02T07:55:49.784Z,95041
2018-04-02T07:58:17.834Z,95042
2018-04-02T08:00:45.897Z,95042
2018-04-02T08:03:14.701Z,95045
2018-04-02T08:05:42.988Z,95047
2018-04-02T08:08:11.271Z,95048
2018-04-02T08:10:39.518Z,95053
2018-04-02T08:13:08.377Z,95040
2018-04-02T08:15:36.419Z,95053
2018-04-02T08:18:04.532Z,95046
2018-04-02T08:20:32.593Z,95051
2018-04-02T08:23:00.647Z,95055
2018-04-02T08:25:28.715Z,95051
2018-04-02T08:27:56.782Z,95047
2018-04-02T08:30:26.300Z,95033
2018-04-02T08:32:55.617Z,95047
2018-04-02T08:35:23.702Z,95044
2018-04-02T08:37:52.311Z,95037
2018-04-02T08:40:20.370Z,95045
2018-04-02T08:42:48.413Z,95041
2018-04-02T08:45:16.542Z,95052
2018-04-02T08:47:44.599Z,95056
2018-04-02T08:50:12.647Z,95048
2018-04-02T08:52:41.594Z,95048
2018-04-02T08:55:09.650Z,95040
2018-04-02T08:57:37.711Z,95046
2018-04-02T09:00:05.754Z,95041
2018-04-02T09:02:35.703Z,95032
2018-04-02T09:05:03.778Z,95023
2018-04-02T09:07:31.842Z,95024
2018-04-02T09:09:59.893Z,95027
2018-04-02T09:12:28.719Z,95029
2018-04-02T09:14:56.774Z,95025
2018-04-02T09:17:27.509Z,95019
2018-04-02T09:19:56.069Z,95026
2018-04-02T09:22:24.386Z,95023
2018-04-02T09:24:53.410Z,95014
2018-04-02T09:27:21.458Z,95011
2018-04-02T09:29:49.542Z,95014
2018-04-02T09:32:17.782Z,95005
2018-04-02T09:34:45.865Z,94994
2018-04-02T09:37:14.660Z,94994
2018-04-02T09:39:42.771Z,94995
2018-04-02T09:42:11.733Z,94997
2018-04-02T09:44:39.855Z,94997
2018-04-02T09:47:07.934Z,94987
2018-04-02T09:49:35.994Z,94983
2018-04-02T09:52:04.687Z,94980
2018-04-02T09:54:32.816Z,94965
2018-04-02T09:57:00.874Z,94983
2018-04-02T09:59:28.947Z,94974
2018-04-02T10:01:56.998Z,94968
2018-04-02T10:04:31.039Z,94966
2018-04-02T10:06:59.036Z,94961
2018-04-02T10:09:27.090Z,94960
2018-04-02T10:11:56.323Z,94949
2018-04-02T10:14:24.375Z,94955
2018-04-02T10:16:52.429Z,94948
2018-04-02T10:19:20.534Z,94940
2018-04-02T10:21:48.605Z,94937
2018-04-02T10:24:16.691Z,94938
2018-04-02T10:26:44.811Z,94936
2018-04-02T10:29:12.833Z,94932
2018-04-02T10:31:40.906Z,94945
2018-04-02T10:34:08.961Z,94934
2018-04-02T10:36:37.070Z,94933
2018-04-02T10:39:06.107Z,94932
2018-04-02T10:41:34.958Z,94921
2018-04-02T10:44:03.029Z,94914
2018-04-02T10:46:31.217Z,94902
2018-04-02T10:48:59.278Z,94910
2018-04-02T10:51:27.326Z,94902
2018-04-02T10:53:56.535Z,94894
2018-04-02T10:56:25.362Z,94887
2018-04-02T10:58:53.415Z,94891
2018-04-02T11:01:21.504Z,94881
2018-04-02T11:03:49.582Z,94883
2018-04-02T11:06:17.733Z,94872
2018-04-02T11:08:45.920Z,94867
2018-04-02T11:11:13.994Z,94862
2018-04-02T11:13:42.045Z,94863
2018-04-02T11:16:10.885Z,94853
2018-04-02T11:18:38.946Z,94856
2018-04-02T11:21:07.030Z,94856
2018-04-02T11:23:35.131Z,94840
2018-04-02T11:26:03.189Z,94850
2018-04-02T11:28:31.278Z,94847
2018-04-02T11:30:59.351Z,94830
2018-04-02T11:33:27.492Z,94828
2018-04-02T11:35:55.555Z,94832
2018-04-02T11:38:24.410Z,94830
2018-04-02T11:40:52.467Z,94828
2018-04-02T11:43:20.924Z,94822
2018-04-02T11:45:49.046Z,94827
2018-04-02T11:48:17.125Z,94830
2018-04-02T11:50:45.689Z,94817
2018-04-02T11:53:13.766Z,94823
2018-04-02T11:55:41.826Z,94818
2018-04-02T11:58:09.880Z,94808
2018-04-02T12:00:37.951Z,94806
2018-04-02T12:03:06.907Z,94805
2018-04-02T12:05:34.978Z,94803
2018-04-02T12:08:03.034Z,94811
2018-04-02T12:10:31.098Z,94801
2018-04-02T12:12:59.203Z,94806
2018-04-02T12:15:27.702Z,94795
2018-04-02T12:17:55.769Z,94795
2018-04-02T12:20:23.958Z,94792
2018-04-02T12:22:52.340Z,94786
2018-04-02T12:25:20.401Z,94778
2018-04-02T12:27:48.458Z,94781
2018-04-02T12:30:16.559Z,94773
2018-04-02T12:32:44.625Z,94771
2018-04-02T12:35:12.746Z,94768
2018-04-02T12:37:41.589Z,94764
2018-04-02T12:40:09.687Z,94756
2018-04-02T12:42:37.763Z,94754
2018-04-02T12:45:05.929Z,94750
2018-04-02T12:47:34.014Z,94751
2018-04-02T12:50:02.074Z,94734
2018-04-02T12:52:30.137Z,94742
2018-04-02T12:54:58.311Z,94732
2018-04-02T12:57:26.385Z,94734
2018-04-02T12:59:54.434Z,94731
2018-04-02T13:02:23.266Z,94728
2018-04-02T13:04:52.189Z,94728
2018-04-02T13:07:20.254Z,94726
2018-04-02T13:09:48.309Z,94723
2018-04-02T13:12:16.429Z,94727
2018-04-02T13:14:44.486Z,94714
2018-04-02T13:17:12.557Z,94704
2018-04-02T13:19:40.616Z,94697
2018-04-02T13:22:08.683Z,94697
2018-04-02T13:24:36.799Z,94692
2018-04-02T13:27:04.969Z,94684
2018-04-02T13:29:33.103Z,94684
2018-04-02T13:32:01.109Z,94679
2018-04-02T13:34:29.199Z,94681
2018-04-02T13:36:58.387Z,94672
2018-04-02T13:39:26.446Z,94672
2018-04-02T13:41:54.562Z,94662
2018-04-02T13:44:22.622Z,94662
2018-04-02T13:46:50.727Z,94661
2018-04-02T13:49:18.761Z,94663
2018-04-02T13:51:46.860Z,94665
2018-04-02T13:54:14.945Z,94654
2018-04-02T13:56:42.997Z,94658
2018-04-02T13:59:11.090Z,94656
2018-04-02T14:01:39.150Z,94643
2018-04-02T14:04:07.233Z,94650
2018-04-02T14:06:35.303Z,94649
2018-04-02T14:09:03.372Z,94650
2018-04-02T14:11:31.934Z,94641
2018-04-02T14:14:00.775Z,94643
2018-04-02T14:16:28.973Z,94623
2018-04-02T14:18:59.670Z,94630
2018-04-02T14:21:27.737Z,94629
2018-04-02T14:23:55.846Z,94626
2018-04-02T14:26:23.905Z,94627
2018-04-02T14:28:53.094Z,94617
2018-04-02T14:31:21.611Z,94624
2018-04-02T14:33:49.678Z,94623
2018-04-02T14:36:17.730Z,94628
2018-04-02T14:38:45.846Z,94620
2018-04-02T14:41:13.905Z,94610
2018-04-02T14:43:41.967Z,94606
2018-04-02T14:46:10.990Z,94605
2018-04-02T14:48:39.163Z,94602
2018-04-02T14:51:07.237Z,94609
2018-04-02T14:53:35.331Z,94595
2018-04-02T14:56:03.394Z,94570
2018-04-02T14:58:31.569Z,94590
2018-04-02T15:01:00.433Z,94580
2018-04-02T15:03:30.490Z,94585
2018-04-02T15:06:00.417Z,94590
2018-04-02T15:08:29.598Z,94592
2018-04-02T15:10:57.658Z,94590
2018-04-02T15:13:25.765Z,94590
2018-04-02T15:15:53.812Z,94575
2018-04-02T15:18:21.880Z,94583
2018-04-02T15:20:49.990Z,94577
2018-04-02T15:23:18.725Z,94568
2018-04-02T15:25:46.131Z,94575
2018-04-02T15:28:14.206Z,94569
2018-04-02T15:30:42.271Z,94564
2018-04-02T15:33:10.371Z,94565
2018-04-02T15:35:38.442Z,94568
2018-04-02T15:38:06.523Z,94561
2018-04-02T15:40:35.419Z,94566
2018-04-02T15:43:03.499Z,94571
2018-04-02T15:45:32.290Z,94559
2018-04-02T15:48:00.378Z,94571
2018-04-02T15:50:30.322Z,94569
2018-04-02T15:53:00.785Z,94556
2018-04-02T15:55:28.882Z,94550
2018-04-02T15:57:56.974Z,94548
2018-04-02T16:00:25.050Z,94551
2018-04-02T16:02:53.112Z,94547
2018-04-02T16:05:21.198Z,94552
2018-04-02T16:07:49.269Z,94540
2018-04-02T16:10:17.346Z,94551
2018-04-02T16:12:45.422Z,94544
2018-04-02T16:15:13.474Z,94551
2018-04-02T16:17:41.580Z,94544
2018-04-02T16:20:09.651Z,94538
2018-04-02T16:22:37.702Z,94536
2018-04-02T16:25:05.790Z,94538
2018-04-02T16:27:33.853Z,94553
2018-04-02T16:30:02.866Z,94541
2018-04-02T16:32:30.930Z,94537
2018-04-02T16:34:59.008Z,94538
2018-04-02T16:37:27.106Z,94535
2018-04-02T16:39:55.190Z,94529
2018-04-02T16:42:23.259Z,94531
2018-04-02T16:44:52.181Z,94536
2018-04-02T16:47:21.750Z,94537
2018-04-02T16:49:49.812Z,94532
2018-04-02T16:52:17.874Z,94540
2018-04-02T16:54:45.953Z,94536
2018-04-02T16:57:14.082Z,94533
2018-04-02T16:59:42.250Z,94533
2018-04-02T17:02:10.314Z,94525
2018-04-02T17:04:38.375Z,94527
2018-04-02T17:07:06.427Z,94521
2018-04-02T17:09:35.990Z,94520
2018-04-02T17:12:04.058Z,94529
2018-04-02T17:14:32.769Z,94522
2018-04-02T17:17:01.346Z,94515
2018-04-02T17:19:29.444Z,94508
2018-04-02T17:21:57.493Z,94512
2018-04-02T17:24:25.570Z,94507
2018-04-02T17:26:53.818Z,94512
2018-04-02T17:29:21.882Z,94505
2018-04-02T17:31:50.722Z,94514
2018-04-02T17:34:18.804Z,94513
2018-04-02T17:36:46.884Z,94517
2018-04-02T17:39:14.957Z,94516
2018-04-02T17:41:43.031Z,94516
2018-04-02T17:44:11.129Z,94517
2018-04-02T17:46:39.218Z,94519
2018-04-02T17:49:07.363Z,94516
2018-04-02T17:51:35.454Z,94505
2018-04-02T17:54:03.503Z,94527
2018-04-02T17:56:31.601Z,94521
2018-04-02T17:58:59.686Z,94525
2018-04-02T18:01:27.974Z,94526
2018-04-02T18:03:56.131Z,94515
2018-04-02T18:06:24.197Z,94520
2018-04-02T18:08:52.257Z,94520
2018-04-02T18:11:21.222Z,94516
2018-04-02T18:13:50.873Z,94523
2018-04-02T18:16:18.946Z,94517
2018-04-02T18:18:47.137Z,94518
2018-04-02T18:21:15.201Z,94523
2018-04-02T18:23:43.323Z,94522
2018-04-02T18:26:11.380Z,94524
2018-04-02T18:28:39.448Z,94527
2018-04-02T18:31:07.626Z,94525
2018-04-02T18:33:35.918Z,94522
2018-04-02T18:36:04.135Z,94532
2018-04-02T18:38:32.457Z,94528
2018-04-02T18:41:00.506Z,94541
2018-04-02T18:43:28.554Z,94559
2018-04-02T18:45:57.695Z,94552
2018-04-02T18:48:25.786Z,94555
2018-04-02T18:50:54.437Z,94555
2018-04-02T18:53:23.282Z,94558
2018-04-02T18:55:52.485Z,94557
2018-04-02T18:58:20.547Z,94560
2018-04-02T19:00:48.614Z,94558
2018-04-02T19:03:16.713Z,94564
2018-04-02T19:05:44.788Z,94563
2018-04-02T19:08:12.864Z,94561
2018-04-02T19:10:40.929Z,94567
2018-04-02T19:13:09.026Z,94578
2018-04-02T19:15:37.245Z,94570
2018-04-02T19:18:06.062Z,94565
2018-04-02T19:20:34.166Z,94561
2018-04-02T19:23:03.370Z,94570
2018-04-02T19:25:33.361Z,94567
2018-04-02T19:28:02.598Z,94569
2018-04-02T19:30:30.686Z,94553
2018-04-02T19:32:58.821Z,94553
2018-04-02T19:35:26.978Z,94550
2018-04-02T19:37:55.797Z,94556
2018-04-02T19:40:23.884Z,94558
2018-04-02T19:42:54.291Z,94552
2018-04-02T19:45:22.486Z,94542
2018-04-02T19:47:50.658Z,94538
2018-04-02T19:50:18.792Z,94527
2018-04-02T19:52:47.642Z,94534
2018-04-02T19:55:15.733Z,94526
2018-04-02T19:57:43.814Z,94531
2018-04-02T20:00:11.871Z,94527
2018-04-02T20:02:39.962Z,94520
2018-04-02T20:05:08.029Z,94513
2018-04-02T20:07:36.089Z,94506
2018-04-02T20:10:04.167Z,94496
2018-04-02T20:12:33.191Z,94513
2018-04-02T20:15:01.270Z,94510
2018-04-02T20:17:29.333Z,94507
2018-04-02T20:19:57.394Z,94503
2018-04-02T20:22:25.487Z,94500
2018-04-02T20:24:53.554Z,94498
2018-04-02T20:27:21.608Z,94500
2018-04-02T20:29:49.674Z,94500
2018-04-02T20:32:17.731Z,94497
2018-04-02T20:34:46.573Z,94499
2018-04-02T20:37:14.651Z,94496
2018-04-02T20:39:43.217Z,94502
2018-04-02T20:42:11.306Z,94500
2018-04-02T20:44:39.370Z,94505
2018-04-02T20:47:07.421Z,94525
2018-04-02T20:49:36.249Z,94513
2018-04-02T20:52:04.317Z,94507
2018-04-02T20:54:34.262Z,94514
2018-04-02T20:57:02.326Z,94506
2018-04-02T20:59:30.386Z,94488
2018-04-02T21:01:58.494Z,94492
2018-04-02T21:04:26.553Z,94483
2018-04-02T21:06:54.660Z,94489
2018-04-02T21:09:22.761Z,94493
2018-04-02T21:11:56.391Z,94495
2018-04-02T21:14:24.577Z,94491
2018-04-02T21:16:52.658Z,94481
2018-04-02T21:19:20.767Z,94487
2018-04-02T21:21:48.943Z,94485
2018-04-02T21:24:16.998Z,94486
2018-04-02T21:26:45.070Z,94477
2018-04-02T21:29:13.125Z,94489
2018-04-02T21:31:41.193Z,94490
2018-04-02T21:34:10.018Z,94485
2018-04-02T21:36:38.089Z,94497
2018-04-02T21:39:06.158Z,94501
2018-04-02T21:41:34.215Z,94494
2018-04-02T21:44:04.162Z,94486
2018-04-02T21:46:32.258Z,94474
2018-04-02T21:49:00.313Z,94476
2018-04-02T21:51:28.398Z,94474
2018-04-02T21:53:56.479Z,94466
2018-04-02T21:56:24.570Z,94471
2018-04-02T21:58:52.626Z,94469
2018-04-02T22:01:20.719Z,94454
2018-04-02T22:03:48.766Z,94459
2018-04-02T22:06:34.807Z,94458
2018-04-02T22:09:02.887Z,94454
2018-04-02T22:11:31.035Z,94456
2018-04-02T22:13:59.118Z,94452
2018-04-02T22:16:27.179Z,94445
2018-04-02T22:18:55.230Z,94448
2018-04-02T22:21:23.294Z,94456
2018-04-02T22:23:52.345Z,94443
2018-04-02T22:26:20.410Z,94442
2018-04-02T22:28:48.471Z,94444
2018-04-02T22:31:16.534Z,94432
2018-04-02T22:33:45.363Z,94426
2018-04-02T22:36:13.422Z,94420
2018-04-02T22:38:41.517Z,94419
2018-04-02T22:41:09.696Z,94417
2018-04-02T22:43:37.748Z,94412
2018-04-02T22:46:05.846Z,94414
2018-04-02T22:48:35.048Z,94412
2018-04-02T22:51:03.101Z,94407
2018-04-02T22:53:31.165Z,94407
2018-04-02T22:55:59.275Z,94404
2018-04-02T22:58:27.334Z,94402
2018-04-02T23:00:55.418Z,94405
2018-04-02T23:03:23.469Z,94408
2018-04-02T23:05:52.206Z,94411
2018-04-02T23:08:20.266Z,94402
2018-04-02T23:10:48.338Z,94390
2018-04-02T23:13:16.389Z,94392
2018-04-02T23:15:44.506Z,94390
2018-04-02T23:18:12.567Z,94400
2018-04-02T23:20:40.656Z,94398
2018-04-02T23:23:08.707Z,94394
2018-04-02T23:25:36.774Z,94398
2018-04-02T23:28:06.318Z,94396
2018-04-02T23:30:35.526Z,94396
2018-04-02T23:33:03.577Z,94402
2018-04-02T23:35:31.645Z,94410
2018-04-02T23:37:59.715Z,94391
2018-04-02T23:40:27.821Z,94395
2018-04-02T23:42:55.902Z,94391
2018-04-02T23:45:23.962Z,94405
2018-04-02T23:47:52.267Z,94403
2018-04-02T23:50:21.830Z,94406
2018-04-02T23:52:49.907Z,94404
2018-04-02T23:55:18.018Z,94400
2018-04-02T23:57:46.094Z,94406
